sensor_id;sensor_type;location;lat;lon;timestamp;P1;durP1;ratioP1;P2;durP2;ratioP2
84373;SDS011;74563;52.206;14.630;2024-01-11T00:00:56;63.23;;;21.10;;
84373;SDS011;74563;52.206;14.630;2024-01-11T00:03:24;50.33;;;17.38;;
84373;SDS011;74563;52.206;14.630;2024-01-11T00:05:49;72.07;;;23.33;;
84373;SDS011;74563;52.206;14.630;2024-01-11T00:08:14;64.53;;;21.80;;
84373;SDS011;74563;52.206;14.630;2024-01-11T00:10:40;61.85;;;20.83;;
84373;SDS011;74563;52.206;14.630;2024-01-11T00:13:05;72.03;;;24.70;;
84373;SDS011;74563;52.206;14.630;2024-01-11T00:15:31;68.07;;;20.60;;
84373;SDS011;74563;52.206;14.630;2024-01-11T00:17:56;47.47;;;15.67;;
84373;SDS011;74563;52.206;14.630;2024-01-11T00:20:21;54.33;;;20.13;;
84373;SDS011;74563;52.206;14.630;2024-01-11T00:22:47;48.47;;;18.47;;
84373;SDS011;74563;52.206;14.630;2024-01-11T00:25:12;43.53;;;14.73;;
84373;SDS011;74563;52.206;14.630;2024-01-11T00:27:37;45.63;;;16.57;;
84373;SDS011;74563;52.206;14.630;2024-01-11T00:30:02;44.13;;;16.20;;
84373;SDS011;74563;52.206;14.630;2024-01-11T00:32:28;53.95;;;18.52;;
84373;SDS011;74563;52.206;14.630;2024-01-11T00:34:53;70.20;;;21.73;;
84373;SDS011;74563;52.206;14.630;2024-01-11T00:37:19;70.63;;;23.93;;
84373;SDS011;74563;52.206;14.630;2024-01-11T00:39:44;75.30;;;25.38;;
84373;SDS011;74563;52.206;14.630;2024-01-11T00:42:09;82.67;;;27.13;;
84373;SDS011;74563;52.206;14.630;2024-01-11T00:44:35;79.43;;;27.00;;
84373;SDS011;74563;52.206;14.630;2024-01-11T00:47:00;54.73;;;19.57;;
84373;SDS011;74563;52.206;14.630;2024-01-11T00:49:25;61.37;;;20.83;;
84373;SDS011;74563;52.206;14.630;2024-01-11T00:51:50;39.07;;;13.40;;
84373;SDS011;74563;52.206;14.630;2024-01-11T00:54:16;33.20;;;13.00;;
84373;SDS011;74563;52.206;14.630;2024-01-11T00:56:41;41.88;;;15.50;;
84373;SDS011;74563;52.206;14.630;2024-01-11T00:59:06;53.20;;;16.70;;
84373;SDS011;74563;52.206;14.630;2024-01-11T01:01:32;49.75;;;17.30;;
84373;SDS011;74563;52.206;14.630;2024-01-11T01:03:57;65.47;;;18.53;;
84373;SDS011;74563;52.206;14.630;2024-01-11T01:06:23;73.35;;;23.23;;
84373;SDS011;74563;52.206;14.630;2024-01-11T01:08:48;55.73;;;20.10;;
84373;SDS011;74563;52.206;14.630;2024-01-11T01:11:13;53.77;;;18.37;;
84373;SDS011;74563;52.206;14.630;2024-01-11T01:13:39;41.40;;;13.50;;
84373;SDS011;74563;52.206;14.630;2024-01-11T01:16:04;46.83;;;15.53;;
84373;SDS011;74563;52.206;14.630;2024-01-11T01:18:29;61.10;;;18.83;;
84373;SDS011;74563;52.206;14.630;2024-01-11T01:20:55;45.77;;;16.00;;
84373;SDS011;74563;52.206;14.630;2024-01-11T01:23:21;45.83;;;17.17;;
84373;SDS011;74563;52.206;14.630;2024-01-11T01:25:46;61.47;;;21.77;;
84373;SDS011;74563;52.206;14.630;2024-01-11T01:28:11;57.70;;;18.57;;
84373;SDS011;74563;52.206;14.630;2024-01-11T01:30:36;59.20;;;18.88;;
84373;SDS011;74563;52.206;14.630;2024-01-11T01:33:02;58.20;;;19.63;;
84373;SDS011;74563;52.206;14.630;2024-01-11T01:35:27;43.30;;;15.85;;
84373;SDS011;74563;52.206;14.630;2024-01-11T01:37:53;45.78;;;14.70;;
84373;SDS011;74563;52.206;14.630;2024-01-11T01:40:18;27.43;;;11.70;;
84373;SDS011;74563;52.206;14.630;2024-01-11T01:42:43;41.50;;;13.33;;
84373;SDS011;74563;52.206;14.630;2024-01-11T01:45:10;48.28;;;16.25;;
84373;SDS011;74563;52.206;14.630;2024-01-11T01:47:36;31.08;;;11.07;;
84373;SDS011;74563;52.206;14.630;2024-01-11T01:50:01;38.53;;;14.00;;
84373;SDS011;74563;52.206;14.630;2024-01-11T01:52:27;33.15;;;12.15;;
84373;SDS011;74563;52.206;14.630;2024-01-11T01:54:53;34.00;;;13.02;;
84373;SDS011;74563;52.206;14.630;2024-01-11T01:57:18;35.20;;;13.73;;
84373;SDS011;74563;52.206;14.630;2024-01-11T01:59:45;35.63;;;15.70;;
84373;SDS011;74563;52.206;14.630;2024-01-11T02:02:13;34.50;;;12.05;;
84373;SDS011;74563;52.206;14.630;2024-01-11T02:04:39;34.65;;;11.75;;
84373;SDS011;74563;52.206;14.630;2024-01-11T02:07:04;36.33;;;14.05;;
84373;SDS011;74563;52.206;14.630;2024-01-11T02:09:31;37.03;;;15.05;;
84373;SDS011;74563;52.206;14.630;2024-01-11T02:11:57;34.55;;;12.73;;
84373;SDS011;74563;52.206;14.630;2024-01-11T02:14:23;22.93;;;10.53;;
84373;SDS011;74563;52.206;14.630;2024-01-11T02:16:49;32.40;;;12.52;;
84373;SDS011;74563;52.206;14.630;2024-01-11T02:19:14;24.70;;;9.30;;
84373;SDS011;74563;52.206;14.630;2024-01-11T02:21:43;26.02;;;9.77;;
84373;SDS011;74563;52.206;14.630;2024-01-11T02:24:11;20.05;;;9.27;;
84373;SDS011;74563;52.206;14.630;2024-01-11T02:26:36;22.20;;;9.33;;
84373;SDS011;74563;52.206;14.630;2024-01-11T02:29:01;35.73;;;11.40;;
84373;SDS011;74563;52.206;14.630;2024-01-11T02:31:27;26.02;;;11.35;;
84373;SDS011;74563;52.206;14.630;2024-01-11T02:33:53;46.85;;;16.98;;
84373;SDS011;74563;52.206;14.630;2024-01-11T02:36:19;46.72;;;16.75;;
84373;SDS011;74563;52.206;14.630;2024-01-11T02:38:45;43.40;;;14.95;;
84373;SDS011;74563;52.206;14.630;2024-01-11T02:41:11;49.92;;;15.27;;
84373;SDS011;74563;52.206;14.630;2024-01-11T02:43:36;41.95;;;16.10;;
84373;SDS011;74563;52.206;14.630;2024-01-11T02:46:02;46.75;;;15.77;;
84373;SDS011;74563;52.206;14.630;2024-01-11T02:48:28;31.65;;;12.32;;
84373;SDS011;74563;52.206;14.630;2024-01-11T02:50:54;44.20;;;14.38;;
84373;SDS011;74563;52.206;14.630;2024-01-11T02:53:20;43.28;;;15.10;;
84373;SDS011;74563;52.206;14.630;2024-01-11T02:55:46;51.37;;;17.03;;
84373;SDS011;74563;52.206;14.630;2024-01-11T02:58:11;47.63;;;15.43;;
84373;SDS011;74563;52.206;14.630;2024-01-11T03:00:36;51.73;;;17.27;;
84373;SDS011;74563;52.206;14.630;2024-01-11T03:03:01;62.83;;;20.30;;
84373;SDS011;74563;52.206;14.630;2024-01-11T03:05:27;52.55;;;18.02;;
84373;SDS011;74563;52.206;14.630;2024-01-11T03:07:52;60.17;;;18.23;;
84373;SDS011;74563;52.206;14.630;2024-01-11T03:10:17;50.03;;;16.73;;
84373;SDS011;74563;52.206;14.630;2024-01-11T03:12:43;54.53;;;19.35;;
84373;SDS011;74563;52.206;14.630;2024-01-11T03:15:08;59.97;;;18.43;;
84373;SDS011;74563;52.206;14.630;2024-01-11T03:17:34;45.85;;;14.95;;
84373;SDS011;74563;52.206;14.630;2024-01-11T03:19:59;47.40;;;14.93;;
84373;SDS011;74563;52.206;14.630;2024-01-11T03:22:24;42.35;;;14.40;;
84373;SDS011;74563;52.206;14.630;2024-01-11T03:24:50;45.22;;;14.43;;
84373;SDS011;74563;52.206;14.630;2024-01-11T03:27:15;55.33;;;17.93;;
84373;SDS011;74563;52.206;14.630;2024-01-11T03:29:40;52.38;;;16.13;;
84373;SDS011;74563;52.206;14.630;2024-01-11T03:32:06;55.70;;;18.37;;
84373;SDS011;74563;52.206;14.630;2024-01-11T03:34:31;46.08;;;15.60;;
84373;SDS011;74563;52.206;14.630;2024-01-11T03:36:56;49.83;;;15.47;;
84373;SDS011;74563;52.206;14.630;2024-01-11T03:39:22;37.70;;;13.03;;
84373;SDS011;74563;52.206;14.630;2024-01-11T03:41:47;29.30;;;12.57;;
84373;SDS011;74563;52.206;14.630;2024-01-11T03:44:12;43.30;;;15.47;;
84373;SDS011;74563;52.206;14.630;2024-01-11T03:46:38;45.60;;;15.98;;
84373;SDS011;74563;52.206;14.630;2024-01-11T03:49:03;40.23;;;14.47;;
84373;SDS011;74563;52.206;14.630;2024-01-11T03:51:29;45.67;;;15.73;;
84373;SDS011;74563;52.206;14.630;2024-01-11T03:53:54;36.30;;;12.03;;
84373;SDS011;74563;52.206;14.630;2024-01-11T03:56:19;49.73;;;17.57;;
84373;SDS011;74563;52.206;14.630;2024-01-11T03:58:44;53.03;;;18.30;;
84373;SDS011;74563;52.206;14.630;2024-01-11T04:01:10;39.10;;;12.57;;
84373;SDS011;74563;52.206;14.630;2024-01-11T04:03:36;19.90;;;8.68;;
84373;SDS011;74563;52.206;14.630;2024-01-11T04:06:02;31.88;;;10.70;;
84373;SDS011;74563;52.206;14.630;2024-01-11T04:08:28;29.58;;;11.40;;
84373;SDS011;74563;52.206;14.630;2024-01-11T04:10:53;28.23;;;11.07;;
84373;SDS011;74563;52.206;14.630;2024-01-11T04:13:18;8.55;;;3.70;;
84373;SDS011;74563;52.206;14.630;2024-01-11T04:15:43;28.23;;;10.07;;
84373;SDS011;74563;52.206;14.630;2024-01-11T04:18:09;19.60;;;8.57;;
84373;SDS011;74563;52.206;14.630;2024-01-11T04:20:34;21.00;;;9.07;;
84373;SDS011;74563;52.206;14.630;2024-01-11T04:22:59;29.37;;;11.83;;
84373;SDS011;74563;52.206;14.630;2024-01-11T04:25:24;35.13;;;12.17;;
84373;SDS011;74563;52.206;14.630;2024-01-11T04:27:50;19.52;;;7.20;;
84373;SDS011;74563;52.206;14.630;2024-01-11T04:30:15;16.97;;;7.53;;
84373;SDS011;74563;52.206;14.630;2024-01-11T04:32:40;25.23;;;10.27;;
84373;SDS011;74563;52.206;14.630;2024-01-11T04:35:06;23.23;;;10.00;;
84373;SDS011;74563;52.206;14.630;2024-01-11T04:37:31;26.48;;;11.25;;
84373;SDS011;74563;52.206;14.630;2024-01-11T04:39:57;35.17;;;12.32;;
84373;SDS011;74563;52.206;14.630;2024-01-11T04:42:24;26.60;;;10.45;;
84373;SDS011;74563;52.206;14.630;2024-01-11T04:44:51;27.48;;;9.90;;
84373;SDS011;74563;52.206;14.630;2024-01-11T04:47:16;20.80;;;8.07;;
84373;SDS011;74563;52.206;14.630;2024-01-11T04:49:42;37.23;;;13.87;;
84373;SDS011;74563;52.206;14.630;2024-01-11T04:52:07;17.70;;;6.13;;
84373;SDS011;74563;52.206;14.630;2024-01-11T04:54:33;19.02;;;7.90;;
84373;SDS011;74563;52.206;14.630;2024-01-11T04:56:58;12.17;;;6.20;;
84373;SDS011;74563;52.206;14.630;2024-01-11T04:59:24;21.07;;;8.07;;
84373;SDS011;74563;52.206;14.630;2024-01-11T05:01:49;16.52;;;8.18;;
84373;SDS011;74563;52.206;14.630;2024-01-11T05:04:14;21.77;;;8.23;;
84373;SDS011;74563;52.206;14.630;2024-01-11T05:06:40;11.10;;;5.20;;
84373;SDS011;74563;52.206;14.630;2024-01-11T05:09:05;13.03;;;7.53;;
84373;SDS011;74563;52.206;14.630;2024-01-11T05:11:30;11.43;;;5.80;;
84373;SDS011;74563;52.206;14.630;2024-01-11T05:13:55;30.67;;;12.17;;
84373;SDS011;74563;52.206;14.630;2024-01-11T05:16:22;9.87;;;4.93;;
84373;SDS011;74563;52.206;14.630;2024-01-11T05:18:48;25.08;;;9.00;;
84373;SDS011;74563;52.206;14.630;2024-01-11T05:21:14;31.45;;;10.30;;
84373;SDS011;74563;52.206;14.630;2024-01-11T05:23:42;27.83;;;9.90;;
84373;SDS011;74563;52.206;14.630;2024-01-11T05:26:08;14.82;;;7.43;;
84373;SDS011;74563;52.206;14.630;2024-01-11T05:28:37;20.00;;;6.43;;
84373;SDS011;74563;52.206;14.630;2024-01-11T05:31:04;24.30;;;6.50;;
84373;SDS011;74563;52.206;14.630;2024-01-11T05:33:34;12.77;;;6.03;;
84373;SDS011;74563;52.206;14.630;2024-01-11T05:35:59;12.93;;;6.33;;
84373;SDS011;74563;52.206;14.630;2024-01-11T05:38:24;11.87;;;6.00;;
84373;SDS011;74563;52.206;14.630;2024-01-11T05:40:49;15.70;;;6.47;;
84373;SDS011;74563;52.206;14.630;2024-01-11T05:43:15;15.13;;;7.00;;
84373;SDS011;74563;52.206;14.630;2024-01-11T05:45:40;22.23;;;7.93;;
84373;SDS011;74563;52.206;14.630;2024-01-11T05:48:05;17.63;;;7.10;;
84373;SDS011;74563;52.206;14.630;2024-01-11T05:50:31;25.23;;;9.88;;
84373;SDS011;74563;52.206;14.630;2024-01-11T05:52:56;13.18;;;6.45;;
84373;SDS011;74563;52.206;14.630;2024-01-11T05:55:22;18.08;;;7.40;;
84373;SDS011;74563;52.206;14.630;2024-01-11T05:57:47;29.00;;;10.90;;
84373;SDS011;74563;52.206;14.630;2024-01-11T06:00:13;18.25;;;6.45;;
84373;SDS011;74563;52.206;14.630;2024-01-11T06:02:39;21.75;;;9.70;;
84373;SDS011;74563;52.206;14.630;2024-01-11T06:05:05;21.65;;;9.18;;
84373;SDS011;74563;52.206;14.630;2024-01-11T06:07:33;33.63;;;12.85;;
84373;SDS011;74563;52.206;14.630;2024-01-11T06:09:58;19.57;;;7.87;;
84373;SDS011;74563;52.206;14.630;2024-01-11T06:12:23;51.67;;;16.93;;
84373;SDS011;74563;52.206;14.630;2024-01-11T06:14:49;14.03;;;7.07;;
84373;SDS011;74563;52.206;14.630;2024-01-11T06:17:14;19.13;;;7.73;;
84373;SDS011;74563;52.206;14.630;2024-01-11T06:19:39;25.97;;;9.40;;
84373;SDS011;74563;52.206;14.630;2024-01-11T06:22:04;25.47;;;10.47;;
84373;SDS011;74563;52.206;14.630;2024-01-11T06:24:31;38.63;;;13.02;;
84373;SDS011;74563;52.206;14.630;2024-01-11T06:26:56;42.50;;;13.80;;
84373;SDS011;74563;52.206;14.630;2024-01-11T06:29:21;21.33;;;9.33;;
84373;SDS011;74563;52.206;14.630;2024-01-11T06:31:46;26.67;;;10.00;;
84373;SDS011;74563;52.206;14.630;2024-01-11T06:34:12;24.30;;;10.27;;
84373;SDS011;74563;52.206;14.630;2024-01-11T06:36:37;26.27;;;9.23;;
84373;SDS011;74563;52.206;14.630;2024-01-11T06:39:02;26.17;;;10.00;;
84373;SDS011;74563;52.206;14.630;2024-01-11T06:41:29;30.70;;;9.90;;
84373;SDS011;74563;52.206;14.630;2024-01-11T06:43:54;28.50;;;11.50;;
84373;SDS011;74563;52.206;14.630;2024-01-11T06:46:20;22.93;;;9.67;;
84373;SDS011;74563;52.206;14.630;2024-01-11T06:48:46;39.75;;;13.88;;
84373;SDS011;74563;52.206;14.630;2024-01-11T06:51:14;26.50;;;9.55;;
84373;SDS011;74563;52.206;14.630;2024-01-11T06:53:40;20.50;;;9.07;;
84373;SDS011;74563;52.206;14.630;2024-01-11T06:56:13;35.57;;;12.43;;
84373;SDS011;74563;52.206;14.630;2024-01-11T06:58:42;20.95;;;7.72;;
84373;SDS011;74563;52.206;14.630;2024-01-11T07:01:08;34.90;;;13.50;;
84373;SDS011;74563;52.206;14.630;2024-01-11T07:03:34;41.63;;;14.20;;
84373;SDS011;74563;52.206;14.630;2024-01-11T07:05:59;9.13;;;4.80;;
84373;SDS011;74563;52.206;14.630;2024-01-11T07:08:24;16.70;;;7.73;;
84373;SDS011;74563;52.206;14.630;2024-01-11T07:10:49;13.37;;;5.67;;
84373;SDS011;74563;52.206;14.630;2024-01-11T07:13:15;26.60;;;9.87;;
84373;SDS011;74563;52.206;14.630;2024-01-11T07:18:07;17.13;;;7.27;;
84373;SDS011;74563;52.206;14.630;2024-01-11T07:20:32;24.83;;;8.07;;
84373;SDS011;74563;52.206;14.630;2024-01-11T07:22:58;27.75;;;9.43;;
84373;SDS011;74563;52.206;14.630;2024-01-11T07:25:23;17.37;;;6.80;;
84373;SDS011;74563;52.206;14.630;2024-01-11T07:27:49;26.03;;;9.10;;
84373;SDS011;74563;52.206;14.630;2024-01-11T07:30:14;28.73;;;10.27;;
84373;SDS011;74563;52.206;14.630;2024-01-11T07:32:39;33.40;;;11.60;;
84373;SDS011;74563;52.206;14.630;2024-01-11T07:35:05;28.90;;;9.90;;
84373;SDS011;74563;52.206;14.630;2024-01-11T07:37:31;24.08;;;9.20;;
84373;SDS011;74563;52.206;14.630;2024-01-11T07:39:57;13.35;;;7.57;;
84373;SDS011;74563;52.206;14.630;2024-01-11T07:42:22;32.10;;;11.00;;
84373;SDS011;74563;52.206;14.630;2024-01-11T07:44:47;16.90;;;6.47;;
84373;SDS011;74563;52.206;14.630;2024-01-11T07:47:12;12.03;;;5.43;;
84373;SDS011;74563;52.206;14.630;2024-01-11T07:49:38;28.47;;;10.47;;
84373;SDS011;74563;52.206;14.630;2024-01-11T07:52:03;22.67;;;10.13;;
84373;SDS011;74563;52.206;14.630;2024-01-11T07:54:29;51.97;;;13.05;;
84373;SDS011;74563;52.206;14.630;2024-01-11T07:56:56;32.65;;;12.13;;
84373;SDS011;74563;52.206;14.630;2024-01-11T07:59:21;40.22;;;13.35;;
84373;SDS011;74563;52.206;14.630;2024-01-11T08:01:47;61.65;;;17.85;;
84373;SDS011;74563;52.206;14.630;2024-01-11T08:04:13;49.70;;;14.63;;
84373;SDS011;74563;52.206;14.630;2024-01-11T08:06:38;39.80;;;11.32;;
84373;SDS011;74563;52.206;14.630;2024-01-11T08:09:04;80.90;;;20.13;;
84373;SDS011;74563;52.206;14.630;2024-01-11T08:11:29;55.13;;;16.92;;
84373;SDS011;74563;52.206;14.630;2024-01-11T08:13:55;24.92;;;10.55;;
84373;SDS011;74563;52.206;14.630;2024-01-11T08:16:21;39.53;;;11.83;;
84373;SDS011;74563;52.206;14.630;2024-01-11T08:18:46;20.83;;;7.53;;
84373;SDS011;74563;52.206;14.630;2024-01-11T08:21:13;45.35;;;13.50;;
84373;SDS011;74563;52.206;14.630;2024-01-11T08:23:39;25.80;;;9.75;;
84373;SDS011;74563;52.206;14.630;2024-01-11T08:26:09;34.28;;;12.82;;
84373;SDS011;74563;52.206;14.630;2024-01-11T08:28:34;23.83;;;9.35;;
84373;SDS011;74563;52.206;14.630;2024-01-11T08:31:00;35.33;;;12.07;;
84373;SDS011;74563;52.206;14.630;2024-01-11T08:33:25;17.90;;;8.17;;
84373;SDS011;74563;52.206;14.630;2024-01-11T08:35:50;31.67;;;9.75;;
84373;SDS011;74563;52.206;14.630;2024-01-11T08:38:15;32.17;;;11.43;;
84373;SDS011;74563;52.206;14.630;2024-01-11T08:40:41;29.33;;;9.90;;
84373;SDS011;74563;52.206;14.630;2024-01-11T08:43:06;22.50;;;8.60;;
84373;SDS011;74563;52.206;14.630;2024-01-11T08:45:31;10.88;;;6.30;;
84373;SDS011;74563;52.206;14.630;2024-01-11T08:47:57;28.67;;;9.55;;
84373;SDS011;74563;52.206;14.630;2024-01-11T08:50:22;32.47;;;11.10;;
84373;SDS011;74563;52.206;14.630;2024-01-11T08:52:47;41.43;;;12.80;;
84373;SDS011;74563;52.206;14.630;2024-01-11T08:55:13;26.10;;;7.65;;
84373;SDS011;74563;52.206;14.630;2024-01-11T08:57:38;49.80;;;17.47;;
84373;SDS011;74563;52.206;14.630;2024-01-11T09:00:04;14.30;;;5.38;;
84373;SDS011;74563;52.206;14.630;2024-01-11T09:02:33;13.43;;;7.20;;
84373;SDS011;74563;52.206;14.630;2024-01-11T09:04:58;24.80;;;8.63;;
84373;SDS011;74563;52.206;14.630;2024-01-11T09:07:24;59.57;;;11.40;;
84373;SDS011;74563;52.206;14.630;2024-01-11T09:09:49;31.92;;;10.35;;
84373;SDS011;74563;52.206;14.630;2024-01-11T09:12:14;32.67;;;11.40;;
84373;SDS011;74563;52.206;14.630;2024-01-11T09:14:40;29.27;;;8.63;;
84373;SDS011;74563;52.206;14.630;2024-01-11T09:17:05;27.23;;;11.10;;
84373;SDS011;74563;52.206;14.630;2024-01-11T09:19:31;35.40;;;11.35;;
84373;SDS011;74563;52.206;14.630;2024-01-11T09:21:58;25.67;;;10.02;;
84373;SDS011;74563;52.206;14.630;2024-01-11T09:24:24;48.97;;;15.95;;
84373;SDS011;74563;52.206;14.630;2024-01-11T09:26:50;11.52;;;5.30;;
84373;SDS011;74563;52.206;14.630;2024-01-11T09:29:16;17.70;;;6.40;;
84373;SDS011;74563;52.206;14.630;2024-01-11T09:31:41;19.08;;;6.82;;
84373;SDS011;74563;52.206;14.630;2024-01-11T09:34:07;26.23;;;9.57;;
84373;SDS011;74563;52.206;14.630;2024-01-11T09:36:32;22.17;;;8.73;;
84373;SDS011;74563;52.206;14.630;2024-01-11T09:38:58;25.95;;;9.40;;
84373;SDS011;74563;52.206;14.630;2024-01-11T09:41:23;26.67;;;8.50;;
84373;SDS011;74563;52.206;14.630;2024-01-11T09:43:49;17.67;;;8.10;;
84373;SDS011;74563;52.206;14.630;2024-01-11T09:46:19;12.02;;;5.28;;
84373;SDS011;74563;52.206;14.630;2024-01-11T09:51:12;30.70;;;10.35;;
84373;SDS011;74563;52.206;14.630;2024-01-11T09:53:38;36.85;;;11.23;;
84373;SDS011;74563;52.206;14.630;2024-01-11T09:58:32;15.27;;;6.40;;
84373;SDS011;74563;52.206;14.630;2024-01-11T10:01:02;16.17;;;7.05;;
84373;SDS011;74563;52.206;14.630;2024-01-11T10:03:27;20.85;;;9.13;;
84373;SDS011;74563;52.206;14.630;2024-01-11T10:05:54;19.77;;;7.65;;
84373;SDS011;74563;52.206;14.630;2024-01-11T10:08:22;18.63;;;7.93;;
84373;SDS011;74563;52.206;14.630;2024-01-11T10:10:48;25.42;;;9.38;;
84373;SDS011;74563;52.206;14.630;2024-01-11T10:13:14;15.88;;;6.57;;
84373;SDS011;74563;52.206;14.630;2024-01-11T10:15:41;22.58;;;7.13;;
84373;SDS011;74563;52.206;14.630;2024-01-11T10:18:06;33.95;;;11.63;;
84373;SDS011;74563;52.206;14.630;2024-01-11T10:20:31;30.70;;;10.50;;
84373;SDS011;74563;52.206;14.630;2024-01-11T10:22:57;30.10;;;9.55;;
84373;SDS011;74563;52.206;14.630;2024-01-11T10:25:23;14.75;;;6.05;;
84373;SDS011;74563;52.206;14.630;2024-01-11T10:27:49;23.80;;;8.68;;
84373;SDS011;74563;52.206;14.630;2024-01-11T10:30:14;28.53;;;10.20;;
84373;SDS011;74563;52.206;14.630;2024-01-11T10:32:41;21.02;;;8.52;;
84373;SDS011;74563;52.206;14.630;2024-01-11T10:35:07;24.75;;;9.15;;
84373;SDS011;74563;52.206;14.630;2024-01-11T10:37:32;25.73;;;11.98;;
84373;SDS011;74563;52.206;14.630;2024-01-11T10:39:59;24.58;;;8.90;;
84373;SDS011;74563;52.206;14.630;2024-01-11T10:42:29;17.42;;;7.45;;
84373;SDS011;74563;52.206;14.630;2024-01-11T10:44:56;20.38;;;9.32;;
84373;SDS011;74563;52.206;14.630;2024-01-11T10:47:26;19.98;;;7.97;;
84373;SDS011;74563;52.206;14.630;2024-01-11T10:49:55;31.00;;;9.70;;
84373;SDS011;74563;52.206;14.630;2024-01-11T10:52:22;38.00;;;11.60;;
84373;SDS011;74563;52.206;14.630;2024-01-11T10:55:00;27.95;;;9.90;;
84373;SDS011;74563;52.206;14.630;2024-01-11T10:57:27;29.73;;;9.93;;
84373;SDS011;74563;52.206;14.630;2024-01-11T10:59:55;28.40;;;9.13;;
84373;SDS011;74563;52.206;14.630;2024-01-11T11:02:20;27.88;;;10.32;;
84373;SDS011;74563;52.206;14.630;2024-01-11T11:04:47;16.48;;;7.05;;
84373;SDS011;74563;52.206;14.630;2024-01-11T11:07:16;32.60;;;9.90;;
84373;SDS011;74563;52.206;14.630;2024-01-11T11:09:41;38.75;;;12.10;;
84373;SDS011;74563;52.206;14.630;2024-01-11T11:12:08;35.15;;;11.30;;
84373;SDS011;74563;52.206;14.630;2024-01-11T11:17:01;17.05;;;6.78;;
84373;SDS011;74563;52.206;14.630;2024-01-11T11:19:26;23.95;;;8.77;;
84373;SDS011;74563;52.206;14.630;2024-01-11T11:21:52;21.40;;;8.95;;
84373;SDS011;74563;52.206;14.630;2024-01-11T11:24:19;27.02;;;9.63;;
84373;SDS011;74563;52.206;14.630;2024-01-11T11:26:44;35.42;;;11.45;;
84373;SDS011;74563;52.206;14.630;2024-01-11T11:29:10;33.40;;;11.73;;
84373;SDS011;74563;52.206;14.630;2024-01-11T11:31:42;39.10;;;12.50;;
84373;SDS011;74563;52.206;14.630;2024-01-11T11:34:11;20.58;;;7.22;;
84373;SDS011;74563;52.206;14.630;2024-01-11T11:36:37;42.22;;;12.85;;
84373;SDS011;74563;52.206;14.630;2024-01-11T11:39:05;33.17;;;11.38;;
84373;SDS011;74563;52.206;14.630;2024-01-11T11:41:30;37.33;;;12.00;;
84373;SDS011;74563;52.206;14.630;2024-01-11T11:44:00;43.83;;;13.57;;
84373;SDS011;74563;52.206;14.630;2024-01-11T11:46:27;35.00;;;10.50;;
84373;SDS011;74563;52.206;14.630;2024-01-11T11:48:53;24.90;;;9.80;;
84373;SDS011;74563;52.206;14.630;2024-01-11T11:51:19;23.75;;;9.88;;
84373;SDS011;74563;52.206;14.630;2024-01-11T11:53:46;42.55;;;12.18;;
84373;SDS011;74563;52.206;14.630;2024-01-11T11:56:13;24.80;;;8.52;;
84373;SDS011;74563;52.206;14.630;2024-01-11T11:58:41;25.77;;;9.57;;
84373;SDS011;74563;52.206;14.630;2024-01-11T12:01:10;38.78;;;13.25;;
84373;SDS011;74563;52.206;14.630;2024-01-11T12:03:40;39.65;;;12.75;;
84373;SDS011;74563;52.206;14.630;2024-01-11T12:06:07;16.40;;;6.50;;
84373;SDS011;74563;52.206;14.630;2024-01-11T12:08:34;29.90;;;10.00;;
84373;SDS011;74563;52.206;14.630;2024-01-11T12:11:01;47.60;;;14.25;;
84373;SDS011;74563;52.206;14.630;2024-01-11T12:13:27;29.60;;;11.50;;
84373;SDS011;74563;52.206;14.630;2024-01-11T12:15:53;47.13;;;14.65;;
84373;SDS011;74563;52.206;14.630;2024-01-11T12:18:18;67.67;;;18.23;;
84373;SDS011;74563;52.206;14.630;2024-01-11T12:20:44;26.67;;;10.50;;
84373;SDS011;74563;52.206;14.630;2024-01-11T12:23:09;32.65;;;11.52;;
84373;SDS011;74563;52.206;14.630;2024-01-11T12:25:35;38.65;;;13.15;;
84373;SDS011;74563;52.206;14.630;2024-01-11T12:28:01;51.50;;;15.43;;
84373;SDS011;74563;52.206;14.630;2024-01-11T12:30:27;25.48;;;8.43;;
84373;SDS011;74563;52.206;14.630;2024-01-11T12:32:52;48.25;;;13.30;;
84373;SDS011;74563;52.206;14.630;2024-01-11T12:35:18;33.67;;;10.95;;
84373;SDS011;74563;52.206;14.630;2024-01-11T12:38:00;25.25;;;9.45;;
84373;SDS011;74563;52.206;14.630;2024-01-11T12:40:29;29.80;;;10.32;;
84373;SDS011;74563;52.206;14.630;2024-01-11T12:42:56;17.17;;;7.57;;
84373;SDS011;74563;52.206;14.630;2024-01-11T12:45:23;67.28;;;20.35;;
84373;SDS011;74563;52.206;14.630;2024-01-11T12:47:51;23.92;;;8.38;;
84373;SDS011;74563;52.206;14.630;2024-01-11T12:50:16;23.53;;;8.87;;
84373;SDS011;74563;52.206;14.630;2024-01-11T12:52:42;30.30;;;10.70;;
84373;SDS011;74563;52.206;14.630;2024-01-11T12:55:08;50.05;;;13.85;;
84373;SDS011;74563;52.206;14.630;2024-01-11T12:57:43;16.92;;;6.40;;
84373;SDS011;74563;52.206;14.630;2024-01-11T13:00:12;36.08;;;12.15;;
84373;SDS011;74563;52.206;14.630;2024-01-11T13:02:39;49.50;;;12.20;;
84373;SDS011;74563;52.206;14.630;2024-01-11T13:05:05;19.42;;;6.47;;
84373;SDS011;74563;52.206;14.630;2024-01-11T13:07:32;33.03;;;11.10;;
84373;SDS011;74563;52.206;14.630;2024-01-11T13:09:57;16.37;;;5.87;;
84373;SDS011;74563;52.206;14.630;2024-01-11T13:12:22;21.80;;;9.03;;
84373;SDS011;74563;52.206;14.630;2024-01-11T13:14:48;29.25;;;7.85;;
84373;SDS011;74563;52.206;14.630;2024-01-11T13:17:15;24.17;;;8.85;;
84373;SDS011;74563;52.206;14.630;2024-01-11T13:19:41;27.27;;;9.87;;
84373;SDS011;74563;52.206;14.630;2024-01-11T13:22:06;31.30;;;9.73;;
84373;SDS011;74563;52.206;14.630;2024-01-11T13:24:31;19.00;;;8.68;;
84373;SDS011;74563;52.206;14.630;2024-01-11T13:26:57;43.23;;;12.10;;
84373;SDS011;74563;52.206;14.630;2024-01-11T13:29:22;24.08;;;8.15;;
84373;SDS011;74563;52.206;14.630;2024-01-11T13:31:47;19.83;;;6.87;;
84373;SDS011;74563;52.206;14.630;2024-01-11T13:34:12;33.80;;;10.67;;
84373;SDS011;74563;52.206;14.630;2024-01-11T13:36:38;28.23;;;10.33;;
84373;SDS011;74563;52.206;14.630;2024-01-11T13:39:03;26.15;;;9.27;;
84373;SDS011;74563;52.206;14.630;2024-01-11T13:41:29;28.13;;;8.60;;
84373;SDS011;74563;52.206;14.630;2024-01-11T13:43:54;35.87;;;11.63;;
84373;SDS011;74563;52.206;14.630;2024-01-11T13:46:19;37.63;;;11.33;;
84373;SDS011;74563;52.206;14.630;2024-01-11T13:48:45;31.63;;;9.93;;
84373;SDS011;74563;52.206;14.630;2024-01-11T13:51:12;20.20;;;7.28;;
84373;SDS011;74563;52.206;14.630;2024-01-11T13:53:40;27.38;;;10.98;;
84373;SDS011;74563;52.206;14.630;2024-01-11T13:56:05;37.07;;;12.13;;
84373;SDS011;74563;52.206;14.630;2024-01-11T13:58:31;49.45;;;14.93;;
84373;SDS011;74563;52.206;14.630;2024-01-11T14:00:56;19.50;;;6.88;;
84373;SDS011;74563;52.206;14.630;2024-01-11T14:03:21;12.85;;;6.05;;
84373;SDS011;74563;52.206;14.630;2024-01-11T14:05:47;23.77;;;8.50;;
84373;SDS011;74563;52.206;14.630;2024-01-11T14:08:12;42.63;;;12.97;;
84373;SDS011;74563;52.206;14.630;2024-01-11T14:10:37;34.80;;;10.90;;
84373;SDS011;74563;52.206;14.630;2024-01-11T14:13:03;44.13;;;12.80;;
84373;SDS011;74563;52.206;14.630;2024-01-11T14:15:28;31.90;;;11.75;;